Time;durP1;ratioP1;P1;durP2;ratioP2;P2;SDS_P1;SDS_P2;PMS_P1;PMS_P2;Temp;Humidity;BMP_temperature;BMP_pressure;BME280_temperature;BME280_humidity;BME280_pressure;Samples;Min_cycle;Max_cycle;Signal;HPM_P1;HPM_P2
2023/08/18 00:01:26;;;;;;;5.32;4.07;;;26.70;99.90;;;;;;10099427;28;20021;-74
2023/08/18 00:06:17;;;;;;;4.93;4.03;;;26.60;99.90;;;;;;10092185;28;20112;-77
2023/08/18 00:11:09;;;;;;;4.95;3.95;;;26.50;99.90;;;;;;10099672;28;20045;-76
2023/08/18 00:16:02;;;;;;;5.10;4.00;;;26.50;99.90;;;;;;10096284;28;20041;-77
2023/08/18 00:20:53;;;;;;;6.40;4.00;;;26.50;99.90;;;;;;10098739;28;20111;-76
2023/08/18 00:25:44;;;;;;;4.95;4.32;;;26.40;99.90;;;;;;10097916;28;20116;-75
2023/08/18 00:30:35;;;;;;;5.20;4.20;;;26.50;99.90;;;;;;10098524;28;20506;-77
2023/08/18 00:35:26;;;;;;;4.65;4.15;;;26.50;99.90;;;;;;10098092;28;20127;-77
2023/08/18 00:40:17;;;;;;;5.53;4.22;;;26.50;99.90;;;;;;10079398;28;20364;-77
2023/08/18 00:45:08;;;;;;;6.38;4.40;;;26.40;99.90;;;;;;10097621;28;20040;-74
2023/08/18 00:50:00;;;;;;;4.20;3.47;;;26.30;99.90;;;;;;10087072;28;20387;-78
2023/08/18 00:54:52;;;;;;;5.78;4.05;;;26.30;99.90;;;;;;10097119;28;20439;-76
2023/08/18 00:59:44;;;;;;;6.30;4.75;;;26.10;99.90;;;;;;10096631;28;20032;-76
2023/08/18 01:04:35;;;;;;;7.43;4.85;;;26.00;99.90;;;;;;10099736;28;20478;-78
2023/08/18 01:09:26;;;;;;;4.78;4.07;;;26.00;99.90;;;;;;10095018;28;20078;-77
2023/08/18 01:14:53;;;;;;;5.18;4.68;;;26.10;99.90;;;;;;10095967;28;20098;-75
2023/08/18 01:19:46;;;;;;;5.45;3.78;;;26.10;99.90;;;;;;10072150;28;20040;-72
2023/08/18 01:24:37;;;;;;;6.38;4.57;;;26.10;99.90;;;;;;10096642;28;20033;-75
2023/08/18 01:29:27;;;;;;;6.53;4.93;;;25.90;99.90;;;;;;10094059;28;20037;-75
2023/08/18 01:34:21;;;;;;;8.70;5.00;;;25.70;99.90;;;;;;10093772;28;20076;-74
2023/08/18 01:39:13;;;;;;;7.00;4.63;;;25.60;99.90;;;;;;10096513;28;20024;-73
2023/08/18 01:44:07;;;;;;;10.63;6.00;;;25.60;99.90;;;;;;10095984;28;20029;-73
2023/08/18 01:48:58;;;;;;;5.80;4.93;;;25.50;99.90;;;;;;10095583;28;20064;-75
2023/08/18 01:53:48;;;;;;;6.07;4.75;;;25.50;99.90;;;;;;10096025;28;20398;-76
2023/08/18 01:58:39;;;;;;;8.18;5.30;;;25.60;99.90;;;;;;10095861;28;20484;-77
2023/08/18 02:03:30;;;;;;;5.95;4.78;;;25.50;99.90;;;;;;10098662;28;20028;-77
2023/08/18 02:08:21;;;;;;;6.82;4.38;;;25.40;99.90;;;;;;10077290;28;20033;-74
2023/08/18 02:13:11;;;;;;;5.65;4.93;;;25.30;99.90;;;;;;10088431;28;20049;-77
2023/08/18 02:18:04;;;;;;;6.82;5.25;;;25.30;99.90;;;;;;10077851;28;20079;-78
2023/08/18 02:22:54;;;;;;;6.90;5.85;;;25.20;99.90;;;;;;10104051;28;20024;-77
2023/08/18 02:27:45;;;;;;;6.82;5.38;;;25.10;99.90;;;;;;10103690;28;20044;-72
2023/08/18 02:32:35;;;;;;;6.15;5.30;;;25.10;99.90;;;;;;10105035;28;20100;-74
2023/08/18 02:37:26;;;;;;;9.23;5.75;;;25.20;99.90;;;;;;10103934;28;20402;-75
2023/08/18 02:42:17;;;;;;;7.60;6.25;;;25.40;99.90;;;;;;10102552;28;20033;-70
2023/08/18 02:47:09;;;;;;;9.75;6.60;;;25.40;99.90;;;;;;10102179;28;20095;-71
2023/08/18 02:52:00;;;;;;;8.95;7.10;;;25.20;99.90;;;;;;10084249;28;20033;-71
2023/08/18 02:56:51;;;;;;;13.65;8.32;;;25.30;99.90;;;;;;10082998;28;20041;-72
2023/08/18 03:01:42;;;;;;;11.55;8.20;;;25.40;99.90;;;;;;10100581;28;20323;-74
2023/08/18 03:06:33;;;;;;;13.07;8.00;;;25.10;99.90;;;;;;10086447;28;20410;-74
2023/08/18 03:11:24;;;;;;;13.35;8.80;;;24.90;99.90;;;;;;10089135;28;20071;-73
2023/08/18 03:16:17;;;;;;;10.23;8.23;;;24.80;99.90;;;;;;10099802;28;20040;-77
2023/08/18 03:21:08;;;;;;;11.82;7.32;;;25.00;99.90;;;;;;10091032;28;20028;-75
2023/08/18 03:26:00;;;;;;;9.98;7.38;;;24.80;99.90;;;;;;10101239;28;20033;-76
2023/08/18 03:30:51;;;;;;;8.45;6.63;;;24.70;99.90;;;;;;10099839;28;20095;-75
2023/08/18 03:35:47;;;;;;;12.27;6.10;;;24.70;99.90;;;;;;10100101;28;20097;-76
2023/08/18 03:40:38;;;;;;;8.90;6.07;;;24.80;99.90;;;;;;10092853;28;20574;-74
2023/08/18 03:45:29;;;;;;;8.80;6.18;;;24.70;99.90;;;;;;10100100;28;20041;-76
2023/08/18 03:50:21;;;;;;;11.45;6.57;;;24.60;99.90;;;;;;10102166;28;20115;-78
2023/08/18 03:55:13;;;;;;;9.45;6.22;;;24.50;99.90;;;;;;10099443;28;20119;-74
2023/08/18 04:00:03;;;;;;;10.23;6.18;;;24.50;99.90;;;;;;10099625;28;20457;-76
2023/08/18 04:04:54;;;;;;;8.05;6.22;;;24.50;99.90;;;;;;10102053;28;20036;-77
2023/08/18 04:09:45;;;;;;;8.50;6.28;;;24.50;99.90;;;;;;10098082;28;20033;-75
2023/08/18 04:14:36;;;;;;;10.55;7.22;;;24.50;99.90;;;;;;10080599;28;20049;-76
2023/08/18 04:19:26;;;;;;;8.68;6.15;;;24.40;99.90;;;;;;10098078;28;20032;-74
2023/08/18 04:24:17;;;;;;;8.80;6.45;;;24.40;99.90;;;;;;10098133;28;20029;-74
2023/08/18 04:29:08;;;;;;;9.65;6.15;;;24.40;99.90;;;;;;10097955;28;20025;-77
2023/08/18 04:33:59;;;;;;;13.07;6.32;;;24.40;99.90;;;;;;10080340;28;20047;-75
2023/08/18 04:38:50;;;;;;;7.88;6.22;;;24.30;99.90;;;;;;10097020;28;20031;-76
2023/08/18 04:43:40;;;;;;;11.43;7.38;;;24.30;99.90;;;;;;10096867;28;20102;-75
2023/08/18 04:48:31;;;;;;;7.82;6.20;;;24.20;99.90;;;;;;10097715;28;20032;-77
2023/08/18 04:53:22;;;;;;;9.73;6.15;;;24.10;99.90;;;;;;10079189;28;20045;-76
2023/08/18 04:58:12;;;;;;;10.52;7.28;;;24.10;99.90;;;;;;10097110;28;20060;-76
2023/08/18 05:03:03;;;;;;;7.97;6.13;;;24.10;99.90;;;;;;10090740;28;20039;-76
2023/08/18 05:07:54;;;;;;;11.27;7.50;;;24.00;99.90;;;;;;10082322;28;20048;-76
2023/08/18 05:12:45;;;;;;;9.93;6.90;;;24.10;99.90;;;;;;10096871;28;20056;-77
2023/08/18 05:17:35;;;;;;;8.75;6.70;;;24.00;99.90;;;;;;10097116;28;20037;-76
2023/08/18 05:22:26;;;;;;;10.55;6.50;;;23.90;99.90;;;;;;10078720;28;20033;-76
2023/08/18 05:27:17;;;;;;;8.68;6.05;;;24.10;99.90;;;;;;10096960;28;20029;-74
2023/08/18 05:32:07;;;;;;;9.15;6.22;;;24.20;99.90;;;;;;10096694;28;20037;-77
2023/08/18 05:36:58;;;;;;;8.55;7.05;;;24.10;99.90;;;;;;10095831;28;20633;-75
2023/08/18 05:41:49;;;;;;;11.18;7.57;;;24.10;99.90;;;;;;10096532;28;20029;-74
2023/08/18 05:46:40;;;;;;;9.15;6.32;;;24.00;99.90;;;;;;10085369;28;20044;-76
2023/08/18 05:51:31;;;;;;;15.20;8.38;;;24.20;99.90;;;;;;10096535;28;20028;-78
2023/08/18 05:56:22;;;;;;;9.77;6.63;;;24.20;99.90;;;;;;10102211;28;20414;-76
2023/08/18 06:01:14;;;;;;;9.80;6.72;;;24.30;99.90;;;;;;10086393;28;20036;-76
2023/08/18 06:06:05;;;;;;;12.43;7.50;;;24.10;99.90;;;;;;10113169;28;20049;-75
2023/08/18 06:10:56;;;;;;;12.27;7.35;;;24.00;99.90;;;;;;10102926;28;20078;-76
2023/08/18 06:15:50;;;;;;;10.35;6.82;;;24.20;99.90;;;;;;10085366;28;20041;-77
2023/08/18 06:20:40;;;;;;;10.35;8.38;;;24.20;99.90;;;;;;10090945;28;20032;-75
2023/08/18 06:25:31;;;;;;;13.65;8.52;;;24.30;99.90;;;;;;10102034;28;20036;-78
2023/08/18 06:30:22;;;;;;;15.30;9.27;;;24.40;99.90;;;;;;10097899;28;20036;-77
2023/08/18 06:35:16;;;;;;;18.73;9.88;;;24.10;99.90;;;;;;10084715;28;20097;-77
2023/08/18 06:40:07;;;;;;;17.83;10.07;;;24.30;99.90;;;;;;10094271;28;20022;-78
2023/08/18 06:44:58;;;;;;;16.17;10.05;;;24.20;99.90;;;;;;10078350;28;20353;-76
2023/08/18 06:49:48;;;;;;;21.42;10.75;;;24.20;99.90;;;;;;10071887;28;20376;-74
2023/08/18 06:54:39;;;;;;;20.80;12.10;;;24.20;99.90;;;;;;10072591;28;20045;-73
2023/08/18 06:59:30;;;;;;;19.52;10.65;;;24.30;99.90;;;;;;10076157;28;20630;-76
2023/08/18 07:04:20;;;;;;;15.30;9.35;;;24.30;99.90;;;;;;10092221;28;20120;-76
2023/08/18 07:09:14;;;;;;;13.18;8.00;;;24.50;99.90;;;;;;10079713;28;20029;-74
2023/08/18 07:14:06;;;;;;;15.07;7.27;;;24.40;99.90;;;;;;10078775;28;20049;-74
2023/08/18 07:18:57;;;;;;;10.95;7.55;;;24.50;99.90;;;;;;10089262;28;20263;-75
2023/08/18 07:23:48;;;;;;;10.02;6.82;;;24.50;99.90;;;;;;10091404;28;20048;-80
2023/08/18 07:28:38;;;;;;;10.77;6.75;;;24.60;99.90;;;;;;10096062;28;20082;-76
2023/08/18 07:33:30;;;;;;;9.50;5.68;;;24.60;99.90;;;;;;10088211;28;20045;-73
2023/08/18 07:38:21;;;;;;;8.55;5.90;;;24.60;99.90;;;;;;10086147;28;20112;-76
2023/08/18 07:43:12;;;;;;;10.65;5.78;;;24.70;99.90;;;;;;10099537;28;20104;-74
2023/08/18 07:48:03;;;;;;;11.88;5.82;;;24.70;99.90;;;;;;10098658;28;20422;-76
2023/08/18 07:52:54;;;;;;;9.18;5.65;;;24.80;99.90;;;;;;10099053;28;20505;-76
2023/08/18 07:57:44;;;;;;;11.98;7.20;;;24.80;99.90;;;;;;10094051;28;20037;-76
2023/08/18 08:02:35;;;;;;;9.25;6.15;;;24.80;99.90;;;;;;10081751;28;20029;-72
2023/08/18 08:07:26;;;;;;;9.93;6.32;;;24.90;99.90;;;;;;10093384;28;20063;-76
2023/08/18 08:12:18;;;;;;;8.32;5.78;;;24.90;99.90;;;;;;10081158;28;20507;-77
2023/08/18 08:17:09;;;;;;;8.23;5.68;;;25.00;99.90;;;;;;10070755;28;20082;-77
2023/08/18 08:22:02;;;;;;;10.90;6.70;;;25.00;99.90;;;;;;10095911;28;20025;-75
2023/08/18 08:26:53;;;;;;;10.40;5.83;;;25.10;99.90;;;;;;10075051;28;20036;-75
2023/08/18 08:31:44;;;;;;;8.45;5.95;;;25.20;99.90;;;;;;10095316;28;20053;-77
2023/08/18 08:36:34;;;;;;;8.93;6.10;;;25.30;99.90;;;;;;10093001;28;20092;-76
2023/08/18 08:41:25;;;;;;;9.80;6.28;;;25.40;99.90;;;;;;10103039;28;20223;-74
2023/08/18 08:46:17;;;;;;;14.20;6.47;;;25.40;99.90;;;;;;10097826;28;20099;-76
2023/08/18 08:51:11;;;;;;;10.45;6.47;;;25.50;99.90;;;;;;10097590;28;20022;-75
2023/08/18 08:56:07;;;;;;;12.00;6.67;;;25.50;99.90;;;;;;10098617;28;20198;-76
2023/08/18 09:01:01;;;;;;;13.07;6.93;;;25.50;99.90;;;;;;10089657;28;20029;-76
2023/08/18 09:05:53;;;;;;;7.15;6.07;;;25.50;99.90;;;;;;10084968;28;20063;-74
2023/08/18 09:10:44;;;;;;;8.75;6.10;;;25.60;99.90;;;;;;10097081;28;20407;-73
2023/08/18 09:15:34;;;;;;;8.73;5.80;;;25.60;99.90;;;;;;10090304;28;20041;-72
2023/08/18 09:20:25;;;;;;;7.40;6.07;;;25.70;99.90;;;;;;10096648;28;20021;-71
2023/08/18 09:25:16;;;;;;;8.77;5.97;;;25.80;99.90;;;;;;10096097;28;20487;-74
2023/08/18 09:30:07;;;;;;;10.75;6.22;;;25.80;99.90;;;;;;10097315;28;20040;-76
2023/08/18 09:34:58;;;;;;;9.88;6.13;;;25.80;99.90;;;;;;10097711;28;20098;-71
2023/08/18 09:39:52;;;;;;;9.52;6.88;;;25.90;99.90;;;;;;10094087;28;20441;-71
2023/08/18 09:44:43;;;;;;;7.28;5.72;;;25.90;99.90;;;;;;10073479;28;20040;-71
2023/08/18 09:49:39;;;;;;;8.38;6.47;;;25.90;99.90;;;;;;10092135;28;20029;-70
2023/08/18 09:54:37;;;;;;;9.57;5.82;;;26.00;99.90;;;;;;10073279;28;20041;-71
2023/08/18 09:59:31;;;;;;;10.27;6.10;;;26.00;99.90;;;;;;10095825;28;20037;-72
2023/08/18 10:04:22;;;;;;;;;;;26.10;99.90;;;;;;10103678;28;20131;-70
2023/08/18 10:09:14;;;;;;;9.10;6.30;;;26.10;99.90;;;;;;10097334;28;19909;-69
2023/08/18 10:14:06;;;;;;;14.73;6.82;;;26.20;99.90;;;;;;10085786;28;20045;-70
2023/08/18 10:18:57;;;;;;;13.63;7.18;;;26.20;99.90;;;;;;10074155;28;20116;-71
2023/08/18 10:23:48;;;;;;;18.08;6.05;;;26.30;99.90;;;;;;10095565;28;20039;-71
2023/08/18 10:28:40;;;;;;;7.70;5.70;;;26.30;99.90;;;;;;10095512;28;20045;-71
2023/08/18 10:33:33;;;;;;;8.07;6.03;;;26.40;99.90;;;;;;10095665;28;20495;-70
2023/08/18 10:38:30;;;;;;;9.70;6.35;;;26.40;99.90;;;;;;10083773;28;20025;-70
2023/08/18 10:43:24;;;;;;;8.23;6.75;;;26.50;99.90;;;;;;10089584;28;20390;-70
2023/08/18 10:48:14;;;;;;;11.43;6.57;;;26.40;99.90;;;;;;10091723;28;20036;-71
2023/08/18 10:53:07;;;;;;;9.77;6.50;;;26.50;99.90;;;;;;10099266;28;20036;-70
2023/08/18 10:57:58;;;;;;;8.27;5.75;;;26.60;99.90;;;;;;10102411;28;20048;-70
2023/08/18 11:02:53;;;;;;;8.20;5.60;;;26.60;99.90;;;;;;10079402;28;20047;-70
2023/08/18 11:07:45;;;;;;;6.05;5.10;;;26.60;99.90;;;;;;10085126;28;20415;-70
2023/08/18 11:12:35;;;;;;;7.15;4.35;;;26.70;99.90;;;;;;10078478;28;20419;-70
2023/08/18 11:17:26;;;;;;;6.63;5.38;;;26.80;99.90;;;;;;10082748;28;20299;-70
2023/08/18 11:22:18;;;;;;;11.00;6.22;;;26.90;99.90;;;;;;10088816;28;20028;-70
2023/08/18 11:27:09;;;;;;;7.82;5.13;;;26.90;99.90;;;;;;10099521;28;20033;-71
2023/08/18 11:32:00;;;;;;;8.60;5.25;;;26.90;99.90;;;;;;10100102;28;20025;-69
2023/08/18 11:37:00;;;;;;;8.35;5.47;;;27.00;99.90;;;;;;10099066;28;20056;-69
2023/08/18 11:41:52;;;;;;;6.75;4.50;;;27.00;99.90;;;;;;10092739;28;20028;-70
2023/08/18 11:46:45;;;;;;;13.68;5.13;;;27.00;99.90;;;;;;10085518;28;20033;-70
2023/08/18 11:51:35;;;;;;;6.55;5.22;;;27.10;99.90;;;;;;10089257;28;20010;-70
2023/08/18 11:56:27;;;;;;;7.40;5.25;;;27.20;99.90;;;;;;10096919;28;20117;-69
2023/08/18 12:01:17;;;;;;;7.90;5.20;;;27.30;99.90;;;;;;10076290;28;20070;-71
2023/08/18 12:06:08;;;;;;;10.35;6.43;;;27.40;99.90;;;;;;10094449;28;20044;-71
2023/08/18 12:10:59;;;;;;;8.10;5.45;;;27.40;99.90;;;;;;10096476;28;20067;-69
2023/08/18 12:15:51;;;;;;;9.23;4.57;;;27.50;99.90;;;;;;10084993;28;20039;-69
2023/08/18 12:20:41;;;;;;;6.53;4.43;;;27.60;99.90;;;;;;10094536;28;20057;-69
2023/08/18 12:25:33;;;;;;;7.80;4.55;;;27.60;99.90;;;;;;10088338;28;20474;-69
2023/08/18 12:30:25;;;;;;;6.60;3.88;;;27.70;99.90;;;;;;10090465;28;20035;-70
2023/08/18 12:35:17;;;;;;;6.82;3.75;;;27.80;99.90;;;;;;10088237;28;20048;-71
2023/08/18 12:40:11;;;;;;;5.60;3.83;;;27.90;99.90;;;;;;10097135;28;20487;-69
2023/08/18 12:45:02;;;;;;;;;;;28.00;99.90;;;;;;10080344;28;20099;-69
2023/08/18 12:49:53;;;;;;;7.88;3.70;;;28.10;99.90;;;;;;10096871;28;19916;-71
2023/08/18 12:54:46;;;;;;;8.80;4.03;;;28.30;99.90;;;;;;10097089;28;20029;-70
2023/08/18 12:59:36;;;;;;;7.55;3.88;;;28.40;99.90;;;;;;10096982;28;20029;-70
2023/08/18 13:04:27;;;;;;;11.25;3.72;;;28.40;99.90;;;;;;10104015;28;20024;-70
2023/08/18 13:09:18;;;;;;;7.03;3.67;;;28.50;99.90;;;;;;10077255;28;20043;-72
2023/08/18 13:14:09;;;;;;;7.70;4.68;;;28.60;99.90;;;;;;10096388;28;20063;-69
2023/08/18 13:19:00;;;;;;;5.70;3.83;;;28.80;99.90;;;;;;10098729;28;20029;-70
2023/08/18 13:23:54;;;;;;;5.95;3.85;;;29.00;99.90;;;;;;10095897;28;20033;-71
2023/08/18 13:28:44;;;;;;;5.93;3.28;;;29.10;99.90;;;;;;10077875;28;20078;-69
2023/08/18 13:33:35;;;;;;;4.82;3.53;;;29.30;99.90;;;;;;10097593;28;20175;-71
2023/08/18 13:38:26;;;;;;;4.15;3.15;;;29.50;99.90;;;;;;10096506;28;20033;-70
2023/08/18 13:43:17;;;;;;;9.07;3.65;;;29.70;99.90;;;;;;10095239;28;20526;-70
2023/08/18 13:48:09;;;;;;;6.80;3.22;;;29.90;99.90;;;;;;10069909;28;20108;-72
2023/08/18 13:52:59;;;;;;;5.40;3.28;;;30.00;99.90;;;;;;10089394;28;20036;-71
2023/08/18 13:57:50;;;;;;;4.85;3.05;;;30.20;99.90;;;;;;10090516;28;20033;-70
2023/08/18 14:02:41;;;;;;;5.10;2.95;;;30.40;99.90;;;;;;10095210;28;20510;-71
2023/08/18 14:07:32;;;;;;;7.07;3.28;;;30.60;99.90;;;;;;10103316;28;20560;-70
2023/08/18 14:12:22;;;;;;;7.65;3.10;;;30.80;99.90;;;;;;10091450;28;20107;-71
2023/08/18 14:17:36;;;;;;;4.60;3.40;;;30.90;99.90;;;;;;10100462;28;20032;-71
2023/08/18 14:22:26;;;;;;;3.97;3.38;;;31.10;99.90;;;;;;10102800;28;20090;-71
2023/08/18 14:27:20;;;;;;;6.25;3.33;;;31.10;99.90;;;;;;10085273;28;20284;-71
2023/08/18 14:32:11;;;;;;;5.22;2.72;;;31.00;99.90;;;;;;10085537;28;20028;-70
2023/08/18 14:37:02;;;;;;;6.05;3.70;;;31.20;99.90;;;;;;10084637;28;20045;-70
2023/08/18 14:41:53;;;;;;;4.82;3.20;;;31.40;99.90;;;;;;10101993;28;20039;-70
2023/08/18 14:46:44;;;;;;;4.85;3.25;;;31.30;99.90;;;;;;10095108;28;20483;-69
2023/08/18 14:51:35;;;;;;;6.60;3.30;;;31.60;99.90;;;;;;10100726;28;20021;-69
2023/08/18 14:56:28;;;;;;;4.15;2.78;;;31.90;99.90;;;;;;10093842;28;20039;-70
2023/08/18 15:01:19;;;;;;;4.95;3.03;;;32.20;99.90;;;;;;10085970;28;20315;-70
2023/08/18 15:06:10;;;;;;;4.90;3.17;;;32.50;99.90;;;;;;10089041;28;20040;-70
2023/08/18 15:11:02;;;;;;;6.60;3.30;;;32.80;99.90;;;;;;10102031;28;20391;-70
2023/08/18 15:15:53;;;;;;;5.25;2.80;;;33.00;99.90;;;;;;10101903;28;20123;-71
2023/08/18 15:20:43;;;;;;;3.83;3.08;;;33.20;99.90;;;;;;10104816;28;20308;-73
2023/08/18 15:25:35;;;;;;;4.18;3.08;;;33.40;99.90;;;;;;10100554;28;20502;-71
2023/08/18 15:30:26;;;;;;;5.65;3.40;;;33.60;99.90;;;;;;10100091;28;20233;-71
2023/08/18 15:35:17;;;;;;;6.25;3.28;;;33.80;99.90;;;;;;10100765;28;20312;-71
2023/08/18 15:40:08;;;;;;;6.95;4.60;;;34.00;99.90;;;;;;10100293;28;20033;-71
2023/08/18 15:44:58;;;;;;;6.78;3.05;;;34.20;99.90;;;;;;10100312;28;20029;-72
2023/08/18 15:49:49;;;;;;;7.45;3.03;;;34.40;99.90;;;;;;10082027;28;20490;-71
2023/08/18 15:54:40;;;;;;;4.47;2.53;;;34.60;99.90;;;;;;10100883;28;20085;-72
2023/08/18 15:59:32;;;;;;;4.22;2.83;;;34.80;99.90;;;;;;10097813;28;20173;-72
2023/08/18 16:04:23;;;;;;;5.30;3.10;;;35.30;99.90;;;;;;10080683;28;20539;-72
2023/08/18 16:09:14;;;;;;;5.20;2.83;;;35.70;99.90;;;;;;10112313;28;20029;-73
2023/08/18 16:14:05;;;;;;;8.18;3.60;;;36.00;99.60;;;;;;10096802;28;20646;-72
2023/08/18 16:18:55;;;;;;;4.05;2.60;;;36.20;99.20;;;;;;10099983;28;20067;-72
2023/08/18 16:23:46;;;;;;;3.50;2.28;;;36.50;98.90;;;;;;10090188;28;20047;-73
2023/08/18 16:28:37;;;;;;;6.70;3.10;;;36.60;98.40;;;;;;10096003;28;20028;-72
2023/08/18 16:33:31;;;;;;;5.03;2.65;;;36.60;98.00;;;;;;10081469;28;20466;-72
2023/08/18 16:38:21;;;;;;;4.93;2.70;;;36.60;97.80;;;;;;10098707;28;20024;-72
2023/08/18 16:43:12;;;;;;;5.65;2.85;;;36.60;97.40;;;;;;10097937;28;20395;-72
2023/08/18 16:48:03;;;;;;;5.60;2.53;;;36.70;97.00;;;;;;10098074;28;20066;-72
2023/08/18 16:52:54;;;;;;;4.43;2.42;;;36.70;96.80;;;;;;10098356;28;20037;-72
2023/08/18 16:57:44;;;;;;;5.53;2.55;;;36.70;96.50;;;;;;10097544;28;20032;-72
2023/08/18 17:02:36;;;;;;;5.22;2.90;;;36.70;96.30;;;;;;10098822;28;20481;-72
2023/08/18 17:07:26;;;;;;;4.47;2.70;;;36.50;96.20;;;;;;10104772;28;20051;-72
2023/08/18 17:12:17;;;;;;;5.38;2.70;;;36.50;96.10;;;;;;10097830;28;20041;-72
2023/08/18 17:17:08;;;;;;;7.45;4.13;;;36.40;95.90;;;;;;10096849;28;20021;-71
2023/08/18 17:21:59;;;;;;;6.38;3.13;;;36.20;96.00;;;;;;10097425;28;20029;-71
2023/08/18 17:26:50;;;;;;;4.78;3.47;;;36.00;96.00;;;;;;10097382;28;20109;-72
2023/08/18 17:31:40;;;;;;;5.43;3.13;;;36.00;96.10;;;;;;10098051;28;20484;-72
2023/08/18 17:36:32;;;;;;;5.63;4.22;;;35.70;96.20;;;;;;10096679;28;20032;-72
2023/08/18 17:41:22;;;;;;;8.25;4.18;;;35.20;96.50;;;;;;10097040;28;20502;-72
2023/08/18 17:46:13;;;;;;;5.15;3.70;;;34.80;96.60;;;;;;10096485;28;20033;-71
2023/08/18 17:51:04;;;;;;;5.20;3.50;;;34.50;96.90;;;;;;10104840;28;20453;-71
2023/08/18 17:55:55;;;;;;;11.32;4.70;;;34.40;97.10;;;;;;10095930;28;20036;-72
2023/08/18 18:00:46;;;;;;;6.00;4.22;;;34.20;97.20;;;;;;10097038;28;20036;-72
2023/08/18 18:05:43;;;;;;;7.38;3.90;;;34.00;97.20;;;;;;10102117;28;20040;-72
2023/08/18 18:10:48;;;;;;;6.13;3.83;;;34.00;97.40;;;;;;10086366;28;20098;-72
2023/08/18 18:15:39;;;;;;;6.10;3.65;;;34.00;97.50;;;;;;10095981;28;20507;-73
2023/08/18 18:20:30;;;;;;;10.40;4.47;;;33.90;97.60;;;;;;10097822;28;20029;-72
2023/08/18 18:25:21;;;;;;;6.55;3.58;;;33.80;97.70;;;;;;10095171;28;20044;-71
2023/08/18 18:30:15;;;;;;;5.85;3.55;;;33.70;97.90;;;;;;10095598;28;20059;-72
2023/08/18 18:35:07;;;;;;;6.70;3.28;;;33.70;98.00;;;;;;10077743;28;20442;-71
2023/08/18 18:39:59;;;;;;;6.55;3.30;;;33.60;98.20;;;;;;10095969;28;20028;-71
2023/08/18 18:44:50;;;;;;;4.88;3.78;;;33.60;98.20;;;;;;10095163;28;20037;-71
2023/08/18 18:49:42;;;;;;;4.72;3.40;;;33.40;98.50;;;;;;10095484;28;20031;-72
2023/08/18 18:54:32;;;;;;;4.57;3.47;;;33.40;98.70;;;;;;10095202;28;20021;-73
2023/08/18 18:59:26;;;;;;;7.70;4.40;;;33.30;98.70;;;;;;10095687;28;20025;-71
2023/08/18 19:04:16;;;;;;;7.05;4.63;;;33.30;98.70;;;;;;10090111;28;20041;-71
2023/08/18 19:09:09;;;;;;;4.63;3.67;;;33.20;98.90;;;;;;10104229;28;20180;-72
2023/08/18 19:14:00;;;;;;;5.30;3.83;;;33.10;99.10;;;;;;10102605;28;20064;-72
2023/08/18 19:18:51;;;;;;;8.40;4.30;;;33.00;99.20;;;;;;10097861;28;20025;-73
2023/08/18 19:23:43;;;;;;;6.32;4.10;;;33.10;99.30;;;;;;10102222;28;20124;-72
2023/08/18 19:28:35;;;;;;;7.00;4.25;;;33.10;99.20;;;;;;10083831;28;20041;-72
2023/08/18 19:33:25;;;;;;;5.65;4.28;;;33.20;99.30;;;;;;10101953;28;20115;-73
2023/08/18 19:38:16;;;;;;;7.85;4.70;;;33.20;99.30;;;;;;10101063;28;20202;-71
2023/08/18 19:43:06;;;;;;;8.57;5.15;;;33.10;99.30;;;;;;10101252;28;20058;-73
2023/08/18 19:47:58;;;;;;;11.27;4.65;;;33.00;99.50;;;;;;10101162;28;20041;-73
2023/08/18 19:52:52;;;;;;;6.93;4.90;;;33.00;99.50;;;;;;10100539;28;20029;-72
2023/08/18 19:57:42;;;;;;;;;;;32.90;99.50;;;;;;10100581;28;20032;-73
2023/08/18 20:02:35;;;;;;;10.23;5.68;;;33.00;99.40;;;;;;10070145;28;20386;-73
2023/08/18 20:07:25;;;;;;;8.85;4.85;;;32.90;99.60;;;;;;10093028;28;20181;-73
2023/08/18 20:12:16;;;;;;;6.20;5.03;;;32.60;99.70;;;;;;10085546;28;20349;-72
2023/08/18 20:17:07;;;;;;;9.15;5.28;;;32.50;99.80;;;;;;10084118;28;20041;-72
2023/08/18 20:21:58;;;;;;;10.23;4.80;;;32.50;99.70;;;;;;10095017;28;20127;-72
2023/08/18 20:26:49;;;;;;;7.78;5.10;;;32.50;99.70;;;;;;10098985;28;20124;-73
2023/08/18 20:31:40;;;;;;;9.48;4.82;;;32.40;99.80;;;;;;10099187;28;20495;-73
2023/08/18 20:36:30;;;;;;;11.05;5.45;;;32.50;99.50;;;;;;10099685;28;20047;-73
2023/08/18 20:41:21;;;;;;;9.57;6.03;;;32.50;99.40;;;;;;10098746;28;20048;-73
2023/08/18 20:46:14;;;;;;;6.82;3.90;;;32.20;99.60;;;;;;10098462;28;20044;-73
2023/08/18 20:51:05;;;;;;;7.45;4.40;;;32.10;99.40;;;;;;10081024;28;20029;-72
2023/08/18 20:55:55;;;;;;;9.68;4.43;;;32.10;99.30;;;;;;10098723;28;20033;-73
2023/08/18 21:00:46;;;;;;;7.90;3.90;;;32.00;99.50;;;;;;10091184;28;20024;-74
2023/08/18 21:05:37;;;;;;;7.75;5.05;;;32.00;99.40;;;;;;10097077;28;20049;-74
2023/08/18 21:10:28;;;;;;;7.80;4.07;;;31.80;99.50;;;;;;10091822;28;20127;-76
2023/08/18 21:15:20;;;;;;;14.00;5.68;;;31.80;99.60;;;;;;10087812;28;20068;-74
2023/08/18 21:20:11;;;;;;;7.15;4.50;;;31.90;99.50;;;;;;10084332;28;20483;-75
2023/08/18 21:25:02;;;;;;;7.82;4.70;;;31.80;99.50;;;;;;10096679;28;20029;-72
2023/08/18 21:29:53;;;;;;;5.53;3.42;;;31.70;99.70;;;;;;10093993;28;20398;-73
2023/08/18 21:34:44;;;;;;;7.18;4.30;;;31.60;99.70;;;;;;10074182;28;20029;-73
2023/08/18 21:39:35;;;;;;;5.82;3.92;;;31.50;99.90;;;;;;10098247;28;20033;-73
2023/08/18 21:44:25;;;;;;;8.88;4.35;;;31.30;99.90;;;;;;10096772;28;20033;-73
2023/08/18 21:49:16;;;;;;;12.05;5.95;;;31.30;99.90;;;;;;10091589;28;20510;-74
2023/08/18 21:54:07;;;;;;;7.05;5.03;;;31.30;99.90;;;;;;10083198;28;20035;-73
2023/08/18 21:58:57;;;;;;;9.02;6.03;;;31.20;99.90;;;;;;10096710;28;20442;-74
2023/08/18 22:03:50;;;;;;;9.70;6.55;;;31.20;99.90;;;;;;10100336;28;20033;-71
2023/08/18 22:08:41;;;;;;;8.13;5.55;;;31.20;99.90;;;;;;10096162;28;20033;-73
2023/08/18 22:13:32;;;;;;;7.93;5.35;;;31.20;99.90;;;;;;10094401;28;20518;-72
2023/08/18 22:18:22;;;;;;;9.18;5.30;;;31.10;99.90;;;;;;10095816;28;20048;-72
2023/08/18 22:23:14;;;;;;;9.05;5.15;;;31.00;99.90;;;;;;10096421;28;20025;-72
2023/08/18 22:28:05;;;;;;;6.45;4.25;;;31.00;99.90;;;;;;10095967;28;20415;-72
2023/08/18 22:32:56;;;;;;;5.93;3.92;;;30.80;99.90;;;;;;10097177;28;20021;-75
2023/08/18 22:37:47;;;;;;;9.18;5.72;;;30.60;99.90;;;;;;10083151;28;20036;-75
2023/08/18 22:42:38;;;;;;;10.57;5.28;;;30.60;99.90;;;;;;10096722;28;20479;-74
2023/08/18 22:47:35;;;;;;;9.27;5.65;;;30.60;99.90;;;;;;10086959;28;20128;-72
2023/08/18 22:52:25;;;;;;;5.30;3.90;;;30.50;99.90;;;;;;10096394;28;20021;-71
2023/08/18 22:57:16;;;;;;;11.43;6.20;;;30.40;99.90;;;;;;10101349;28;20033;-75
2023/08/18 23:02:07;;;;;;;6.07;3.67;;;30.60;99.90;;;;;;10108824;28;20028;-75
2023/08/18 23:06:57;;;;;;;6.85;3.90;;;30.30;99.90;;;;;;10101882;28;20447;-73
2023/08/18 23:11:48;;;;;;;6.00;3.30;;;30.30;99.90;;;;;;10085183;28;20526;-73
2023/08/18 23:16:39;;;;;;;8.40;4.15;;;30.10;99.90;;;;;;10102352;28;20036;-73
2023/08/18 23:21:31;;;;;;;11.82;6.25;;;30.20;99.90;;;;;;10101957;28;20108;-74
2023/08/18 23:26:22;;;;;;;7.72;4.70;;;30.10;99.90;;;;;;10100972;28;20040;-74
2023/08/18 23:31:16;;;;;;;9.20;5.22;;;30.10;99.90;;;;;;10102586;28;20506;-75
2023/08/18 23:36:07;;;;;;;7.40;3.30;;;30.00;99.90;;;;;;10101732;28;20530;-75
2023/08/18 23:40:58;;;;;;;8.52;3.30;;;30.00;99.90;;;;;;10101019;28;20148;-74
2023/08/18 23:45:49;;;;;;;7.30;3.90;;;30.00;99.90;;;;;;10101455;28;20071;-75
2023/08/18 23:50:40;;;;;;;8.27;3.92;;;29.90;99.90;;;;;;10100308;28;20564;-74
2023/08/18 23:55:31;;;;;;;5.68;3.45;;;29.80;99.90;;;;;;10100302;28;20119;-72
